Terminal Aerodrome Forecast
Issued by NWS

Home | Current Version | Previous Version | Text Only | Print | Product List | Glossary On
Versions: 1 2 3 4 5 6 7 8 9 10 11 12 13 14 15 16 17 18 19 20 21 22 23 24 25 26 27 28 29 30 31 32
000
FTUS43 KPAH 302342
TAFOWB
TAF
KOWB 302342Z 0100/0124 28008KT P6SM BKN050
     FM010100 23003KT P6SM BKN050
     FM010500 22002KT P6SM VCTS BKN040CB
     FM010800 00000KT P6SM BKN150
     FM011300 28007KT P6SM OVC080 PROB30 0118/0122 4SM SHRA BR=

USA.gov is the U.S. government's official web portal to all federal, state and local government web resources and services.